createdAt,value
2019-04-07T00:00:12.638Z,7.15
2019-04-07T00:01:12.964Z,7.20
2019-04-07T00:02:13.057Z,7.20
2019-04-07T00:03:12.888Z,7.17
2019-04-07T00:04:12.749Z,7.13
2019-04-07T00:05:14.713Z,7.13
2019-04-07T00:06:13.380Z,7.13
2019-04-07T00:07:12.831Z,7.21
2019-04-07T00:08:13.386Z,7.21
2019-04-07T00:09:12.886Z,7.25
2019-04-07T00:10:12.916Z,7.21
2019-04-07T00:11:12.941Z,7.17
2019-04-07T00:12:12.970Z,7.25
2019-04-07T00:13:13.597Z,7.30
2019-04-07T00:14:13.026Z,7.35
2019-04-07T00:15:13.051Z,7.34
2019-04-07T00:16:13.488Z,7.27
2019-04-07T00:17:13.686Z,7.34
2019-04-07T00:18:13.341Z,7.30
2019-04-07T00:19:13.688Z,7.37
2019-04-07T00:20:13.789Z,7.28
2019-04-07T00:21:13.683Z,7.34
2019-04-07T00:22:13.390Z,7.27
2019-04-07T00:23:13.271Z,7.35
2019-04-07T00:24:13.624Z,7.28
2019-04-07T00:25:13.329Z,7.24
2019-04-07T00:26:13.355Z,7.28
2019-04-07T00:27:13.382Z,7.32
2019-04-07T00:28:13.410Z,7.21
2019-04-07T00:29:13.439Z,7.31
2019-04-07T00:30:13.726Z,7.27
2019-04-07T00:31:13.491Z,7.28
2019-04-07T00:32:14.080Z,7.24
2019-04-07T00:33:13.548Z,7.24
2019-04-07T00:34:13.573Z,7.31
2019-04-07T00:35:23.184Z,7.25
2019-04-07T00:36:13.630Z,7.32
2019-04-07T00:37:14.085Z,7.17
2019-04-07T00:38:13.909Z,7.21
2019-04-07T00:39:13.713Z,7.27
2019-04-07T00:40:14.240Z,7.28
2019-04-07T00:41:13.768Z,7.24
2019-04-07T00:42:13.797Z,7.30
2019-04-07T00:43:13.824Z,7.37
2019-04-07T00:44:13.851Z,7.39
2019-04-07T00:45:14.113Z,7.35
2019-04-07T00:46:14.110Z,7.31
2019-04-07T00:47:14.054Z,7.31
2019-04-07T00:48:13.962Z,7.35
2019-04-07T00:49:13.991Z,7.43
2019-04-07T00:50:14.187Z,7.39
2019-04-07T00:51:14.046Z,7.40
2019-04-07T00:52:14.074Z,7.45
2019-04-07T00:53:14.497Z,7.43
2019-04-07T00:54:14.130Z,7.43
2019-04-07T00:55:14.251Z,7.45
2019-04-07T00:56:14.624Z,7.50
2019-04-07T00:57:14.801Z,7.52
2019-04-07T00:58:14.852Z,7.49
2019-04-07T00:59:14.401Z,7.50
2019-04-07T01:00:16.489Z,7.49
2019-04-07T01:01:14.326Z,7.50
2019-04-07T01:02:14.352Z,7.48
2019-04-07T01:03:14.836Z,7.57
2019-04-07T01:04:14.408Z,7.68
2019-04-07T01:05:14.700Z,7.63
2019-04-07T01:06:14.464Z,7.61
2019-04-07T01:07:14.540Z,7.68
2019-04-07T01:08:15.466Z,7.80
2019-04-07T01:09:14.577Z,7.63
2019-04-07T01:10:15.107Z,7.64
2019-04-07T01:11:14.602Z,7.79
2019-04-07T01:12:14.926Z,7.79
2019-04-07T01:13:14.658Z,7.71
2019-04-07T01:14:14.683Z,7.68
2019-04-07T01:15:15.146Z,7.85
2019-04-07T01:16:14.741Z,7.79
2019-04-07T01:17:14.983Z,7.82
2019-04-07T01:18:15.396Z,7.71
2019-04-07T01:19:14.828Z,7.77
2019-04-07T01:20:15.159Z,7.79
2019-04-07T01:21:14.958Z,7.74
2019-04-07T01:22:15.447Z,7.69
2019-04-07T01:23:14.937Z,7.85
2019-04-07T01:24:14.963Z,7.71
2019-04-07T01:25:14.991Z,7.74
2019-04-07T01:26:15.018Z,7.69
2019-04-07T01:27:15.720Z,7.69
2019-04-07T01:28:15.074Z,7.83
2019-04-07T01:29:15.624Z,7.82
2019-04-07T01:30:15.133Z,7.80
2019-04-07T01:31:15.159Z,7.75
2019-04-07T01:32:15.200Z,7.79
2019-04-07T01:33:15.379Z,7.71
2019-04-07T01:34:15.243Z,7.79
2019-04-07T01:35:15.270Z,7.82
2019-04-07T01:36:15.298Z,7.86
2019-04-07T01:37:15.342Z,7.83
2019-04-07T01:38:15.356Z,7.97
2019-04-07T01:39:15.391Z,7.97
2019-04-07T01:40:15.711Z,8.02
2019-04-07T01:41:15.437Z,7.95
2019-04-07T01:42:15.466Z,8.04
2019-04-07T01:43:15.501Z,7.97
2019-04-07T01:44:15.562Z,8.01
2019-04-07T01:45:15.567Z,8.11
2019-04-07T01:46:15.579Z,8.05
2019-04-07T01:47:15.605Z,8.07
2019-04-07T01:48:16.082Z,8.19
2019-04-07T01:49:15.850Z,8.10
2019-04-07T01:50:15.910Z,8.12
2019-04-07T01:51:15.787Z,8.20
2019-04-07T01:52:16.156Z,8.20
2019-04-07T01:53:15.776Z,8.16
2019-04-07T01:54:16.330Z,8.37
2019-04-07T01:55:15.837Z,8.29
2019-04-07T01:56:15.858Z,8.29
2019-04-07T01:57:15.887Z,8.37
2019-04-07T01:58:16.366Z,8.41
2019-04-07T01:59:16.626Z,8.45
2019-04-07T02:00:16.231Z,8.52
2019-04-07T02:01:15.999Z,8.56
2019-04-07T02:02:16.028Z,8.48
2019-04-07T02:03:16.394Z,8.45
2019-04-07T02:04:16.086Z,8.45
2019-04-07T02:05:16.111Z,8.52
2019-04-07T02:06:16.615Z,8.55
2019-04-07T02:07:16.210Z,8.48
2019-04-07T02:08:16.657Z,8.43
2019-04-07T02:09:16.275Z,8.48
2019-04-07T02:10:17.055Z,8.52
2019-04-07T02:11:16.790Z,8.56
2019-04-07T02:12:16.961Z,8.50
2019-04-07T02:13:16.538Z,8.48
2019-04-07T02:14:16.365Z,8.48
2019-04-07T02:15:16.478Z,8.52
2019-04-07T02:16:16.421Z,8.52
2019-04-07T02:17:17.167Z,8.56
2019-04-07T02:18:16.478Z,8.62
2019-04-07T02:19:16.503Z,8.63
2019-04-07T02:20:16.782Z,8.50
2019-04-07T02:21:16.568Z,8.58
2019-04-07T02:22:16.591Z,8.50
2019-04-07T02:23:16.619Z,8.53
2019-04-07T02:24:16.647Z,8.53
2019-04-07T02:25:17.265Z,8.52
2019-04-07T02:26:16.702Z,8.53
2019-04-07T02:27:17.223Z,8.53
2019-04-07T02:28:16.758Z,8.53
2019-04-07T02:29:17.024Z,8.50
2019-04-07T02:30:16.816Z,8.52
2019-04-07T02:31:17.228Z,8.52
2019-04-07T02:32:17.390Z,8.48
2019-04-07T02:33:17.977Z,8.45
2019-04-07T02:34:17.754Z,8.40
2019-04-07T02:35:16.956Z,8.41
2019-04-07T02:36:25.547Z,8.43
2019-04-07T02:37:17.522Z,8.44
2019-04-07T02:38:17.624Z,8.44
2019-04-07T02:39:17.392Z,8.48
2019-04-07T02:40:17.846Z,8.50
2019-04-07T02:41:17.832Z,8.48
2019-04-07T02:42:17.219Z,8.47
2019-04-07T02:43:17.945Z,8.50
2019-04-07T02:44:17.965Z,8.47
2019-04-07T02:45:17.269Z,8.48
2019-04-07T02:46:18.219Z,8.55
2019-04-07T02:47:18.122Z,8.56
2019-04-07T02:48:18.102Z,8.52
2019-04-07T02:49:17.870Z,8.53
2019-04-07T02:50:17.759Z,8.59
2019-04-07T02:51:17.963Z,8.48
2019-04-07T02:52:17.651Z,8.56
2019-04-07T02:53:17.484Z,8.56
2019-04-07T02:54:17.586Z,8.59
2019-04-07T02:55:18.331Z,8.50
2019-04-07T02:56:17.549Z,8.68
2019-04-07T02:57:17.582Z,8.62
2019-04-07T02:58:17.911Z,8.63
2019-04-07T02:59:17.635Z,8.74
2019-04-07T03:00:18.404Z,8.63
2019-04-07T03:01:18.063Z,8.63
2019-04-07T03:02:17.841Z,8.71
2019-04-07T03:03:18.814Z,8.66
2019-04-07T03:04:17.891Z,8.70
2019-04-07T03:05:18.014Z,8.52
2019-04-07T03:06:34.014Z,8.53
2019-04-07T03:07:17.868Z,8.71
2019-04-07T03:08:18.467Z,8.70
2019-04-07T03:09:18.706Z,8.63
2019-04-07T03:10:18.645Z,8.62
2019-04-07T03:11:18.173Z,8.63
2019-04-07T03:12:18.977Z,8.71
2019-04-07T03:13:18.033Z,8.66
2019-04-07T03:14:18.064Z,8.61
2019-04-07T03:15:18.088Z,8.63
2019-04-07T03:16:19.234Z,8.63
2019-04-07T03:17:18.204Z,8.62
2019-04-07T03:18:18.175Z,8.68
2019-04-07T03:19:19.197Z,8.50
2019-04-07T03:20:18.732Z,8.61
2019-04-07T03:21:19.461Z,8.56
2019-04-07T03:22:18.323Z,8.55
2019-04-07T03:23:18.315Z,8.65
2019-04-07T03:24:19.367Z,8.59
2019-04-07T03:25:18.513Z,8.55
2019-04-07T03:26:18.546Z,8.61
2019-04-07T03:27:18.430Z,8.59
2019-04-07T03:28:18.658Z,8.50
2019-04-07T03:29:18.501Z,8.56
2019-04-07T03:30:20.817Z,8.56
2019-04-07T03:31:19.981Z,8.56
2019-04-07T03:32:20.132Z,8.55
2019-04-07T03:33:22.032Z,8.50
2019-04-07T03:34:20.420Z,8.55
2019-04-07T03:35:20.916Z,8.52
2019-04-07T03:36:21.318Z,8.59
2019-04-07T03:37:33.266Z,8.53
2019-04-07T03:38:19.000Z,8.56
2019-04-07T03:39:19.140Z,8.56
2019-04-07T03:40:18.808Z,8.58
2019-04-07T03:41:19.669Z,8.61
2019-04-07T03:42:18.859Z,8.63
2019-04-07T03:43:19.624Z,8.63
2019-04-07T03:44:18.914Z,8.66
2019-04-07T03:45:20.241Z,8.70
2019-04-07T03:46:18.972Z,8.76
2019-04-07T03:47:18.999Z,8.63
2019-04-07T03:48:19.124Z,8.77
2019-04-07T03:49:19.990Z,8.73
2019-04-07T03:50:19.087Z,8.74
2019-04-07T03:51:19.153Z,8.79
2019-04-07T03:52:19.600Z,8.80
2019-04-07T03:53:20.131Z,8.76
2019-04-07T03:54:19.202Z,8.84
2019-04-07T03:55:20.385Z,8.79
2019-04-07T03:56:20.143Z,8.94
2019-04-07T03:57:19.722Z,8.87
2019-04-07T03:58:19.618Z,8.91
2019-04-07T03:59:20.153Z,8.92
2019-04-07T04:00:19.450Z,8.83
2019-04-07T04:01:19.416Z,8.91
2019-04-07T04:02:19.681Z,8.94
2019-04-07T04:03:19.459Z,8.96
2019-04-07T04:04:19.484Z,8.99
2019-04-07T04:05:19.514Z,8.94
2019-04-07T04:06:20.584Z,8.92
2019-04-07T04:07:29.214Z,8.89
2019-04-07T04:08:19.602Z,8.98
2019-04-07T04:09:19.629Z,8.94
2019-04-07T04:10:19.657Z,8.99
2019-04-07T04:11:20.409Z,8.91
2019-04-07T04:12:19.713Z,8.81
2019-04-07T04:13:20.191Z,8.92
2019-04-07T04:14:19.770Z,8.89
2019-04-07T04:15:20.113Z,8.91
2019-04-07T04:16:20.132Z,8.91
2019-04-07T04:17:19.865Z,8.84
2019-04-07T04:18:20.581Z,8.91
2019-04-07T04:19:20.877Z,8.86
2019-04-07T04:20:19.940Z,8.86
2019-04-07T04:21:19.968Z,8.84
2019-04-07T04:22:21.047Z,8.92
2019-04-07T04:23:20.034Z,8.92
2019-04-07T04:24:20.058Z,8.92
2019-04-07T04:25:21.149Z,8.95
2019-04-07T04:26:20.111Z,8.91
2019-04-07T04:27:20.406Z,8.87
2019-04-07T04:28:20.347Z,8.91
2019-04-07T04:29:20.237Z,8.89
2019-04-07T04:30:21.165Z,8.87
2019-04-07T04:31:20.254Z,8.87
2019-04-07T04:32:21.556Z,8.98
2019-04-07T04:33:20.311Z,9.01
2019-04-07T04:34:20.590Z,8.99
2019-04-07T04:35:20.369Z,9.01
2019-04-07T04:36:20.398Z,8.84
2019-04-07T04:37:34.670Z,8.89
2019-04-07T04:38:20.461Z,8.87
2019-04-07T04:39:21.209Z,8.87
2019-04-07T04:40:20.772Z,8.79
2019-04-07T04:41:21.034Z,8.81
2019-04-07T04:42:20.654Z,8.73
2019-04-07T04:43:20.599Z,8.71
2019-04-07T04:44:21.862Z,8.70
2019-04-07T04:45:20.656Z,8.71
2019-04-07T04:46:21.723Z,8.68
2019-04-07T04:47:20.872Z,8.70
2019-04-07T04:48:20.750Z,8.76
2019-04-07T04:49:21.127Z,8.70
2019-04-07T04:50:21.166Z,8.74
2019-04-07T04:51:20.885Z,8.83
2019-04-07T04:52:20.857Z,8.81
2019-04-07T04:53:20.888Z,8.79
2019-04-07T04:54:21.202Z,8.94
2019-04-07T04:55:20.941Z,8.92
2019-04-07T04:56:22.750Z,8.89
2019-04-07T04:57:21.610Z,8.89
2019-04-07T04:58:21.028Z,8.96
2019-04-07T04:59:21.660Z,8.91
2019-04-07T05:00:21.815Z,8.98
2019-04-07T05:01:21.882Z,8.94
2019-04-07T05:02:21.144Z,8.99
2019-04-07T05:03:21.573Z,8.95
2019-04-07T05:04:21.747Z,8.99
2019-04-07T05:05:21.324Z,9.04
2019-04-07T05:06:21.367Z,8.99
2019-04-07T05:07:22.821Z,9.05
2019-04-07T05:08:21.316Z,9.04
2019-04-07T05:09:21.345Z,9.04
2019-04-07T05:10:21.555Z,9.10
2019-04-07T05:11:21.411Z,9.10
2019-04-07T05:12:21.987Z,9.10
2019-04-07T05:13:21.469Z,9.05
2019-04-07T05:14:22.003Z,9.11
2019-04-07T05:15:21.518Z,9.15
2019-04-07T05:16:21.544Z,9.14
2019-04-07T05:17:21.932Z,9.17
2019-04-07T05:18:22.249Z,9.10
2019-04-07T05:19:21.629Z,9.17
2019-04-07T05:20:21.774Z,9.28
2019-04-07T05:21:21.689Z,9.26
2019-04-07T05:22:22.510Z,9.26
2019-04-07T05:23:21.746Z,9.21
2019-04-07T05:24:22.229Z,9.28
2019-04-07T05:25:22.272Z,9.28
2019-04-07T05:26:22.352Z,9.33
2019-04-07T05:27:21.879Z,9.32
2019-04-07T05:28:21.906Z,9.32
2019-04-07T05:29:21.921Z,9.33
2019-04-07T05:30:22.547Z,9.36
2019-04-07T05:31:22.481Z,9.31
2019-04-07T05:32:22.320Z,9.32
2019-04-07T05:33:22.037Z,9.32
2019-04-07T05:34:23.001Z,9.38
2019-04-07T05:35:22.531Z,9.40
2019-04-07T05:36:22.352Z,9.46
2019-04-07T05:37:22.151Z,9.53
2019-04-07T05:38:22.368Z,9.50
2019-04-07T05:39:22.934Z,9.51
2019-04-07T05:40:22.236Z,9.51
2019-04-07T05:41:22.967Z,9.58
2019-04-07T05:42:22.552Z,9.53
2019-04-07T05:43:22.728Z,9.56
2019-04-07T05:44:22.353Z,9.60
2019-04-07T05:45:22.666Z,9.61
2019-04-07T05:46:22.790Z,9.65
2019-04-07T05:47:22.438Z,9.66
2019-04-07T05:48:22.765Z,9.69
2019-04-07T05:49:24.186Z,9.65
2019-04-07T05:50:26.737Z,9.74
2019-04-07T05:51:22.894Z,9.83
2019-04-07T05:52:22.789Z,9.83
2019-04-07T05:53:23.270Z,9.86
2019-04-07T05:54:22.642Z,9.90
2019-04-07T05:55:24.361Z,9.86
2019-04-07T05:56:25.891Z,9.94
2019-04-07T05:57:22.729Z,9.96
2019-04-07T05:58:23.320Z,10.05
2019-04-07T05:59:22.788Z,10.09
2019-04-07T06:00:23.477Z,10.08
2019-04-07T06:01:23.686Z,10.15
2019-04-07T06:02:23.297Z,10.15
2019-04-07T06:03:22.904Z,10.08
2019-04-07T06:04:22.933Z,10.14
2019-04-07T06:05:22.962Z,10.17
2019-04-07T06:06:22.992Z,10.20
2019-04-07T06:07:25.668Z,10.23
2019-04-07T06:08:32.149Z,10.23
2019-04-07T06:09:23.155Z,10.18
2019-04-07T06:10:27.621Z,10.29
2019-04-07T06:11:23.158Z,10.30
2019-04-07T06:12:23.577Z,10.32
2019-04-07T06:13:23.703Z,10.34
2019-04-07T06:14:24.314Z,10.32
2019-04-07T06:15:23.328Z,10.30
2019-04-07T06:16:23.761Z,10.32
2019-04-07T06:17:26.101Z,10.30
2019-04-07T06:18:23.951Z,10.32
2019-04-07T06:19:23.863Z,10.32
2019-04-07T06:20:23.553Z,10.27
2019-04-07T06:21:23.492Z,10.29
2019-04-07T06:22:23.631Z,10.33
2019-04-07T06:23:25.816Z,10.26
2019-04-07T06:24:23.521Z,10.33
2019-04-07T06:25:23.552Z,10.30
2019-04-07T06:26:23.579Z,10.32
2019-04-07T06:27:24.034Z,10.20
2019-04-07T06:28:23.796Z,10.29
2019-04-07T06:29:25.619Z,10.26
2019-04-07T06:30:24.065Z,10.33
2019-04-07T06:31:25.823Z,10.27
2019-04-07T06:32:24.411Z,10.32
2019-04-07T06:33:23.784Z,10.36
2019-04-07T06:34:23.860Z,10.38
2019-04-07T06:35:23.845Z,10.44
2019-04-07T06:36:26.294Z,10.42
2019-04-07T06:37:27.793Z,10.47
2019-04-07T06:38:31.845Z,10.56
2019-04-07T06:39:24.141Z,10.59
2019-04-07T06:40:24.217Z,10.53
2019-04-07T06:41:27.329Z,10.51
2019-04-07T06:42:24.217Z,10.60
2019-04-07T06:43:24.754Z,10.52
2019-04-07T06:44:24.316Z,10.64
2019-04-07T06:45:24.461Z,10.66
2019-04-07T06:46:27.671Z,10.63
2019-04-07T06:47:24.926Z,10.61
2019-04-07T06:48:24.226Z,10.60
2019-04-07T06:49:27.552Z,10.63
2019-04-07T06:50:24.287Z,10.63
2019-04-07T06:51:26.930Z,10.66
2019-04-07T06:52:24.787Z,10.66
2019-04-07T06:53:24.568Z,10.66
2019-04-07T06:54:24.567Z,10.64
2019-04-07T06:55:26.630Z,10.67
2019-04-07T06:56:24.466Z,10.64
2019-04-07T06:57:24.495Z,10.76
2019-04-07T06:58:24.524Z,10.68
2019-04-07T06:59:25.069Z,10.64
2019-04-07T07:00:25.760Z,10.71
2019-04-07T07:01:26.514Z,10.67
2019-04-07T07:02:25.043Z,10.64
2019-04-07T07:03:24.670Z,10.66
2019-04-07T07:04:25.367Z,10.64
2019-04-07T07:05:24.732Z,10.68
2019-04-07T07:06:25.189Z,10.66
2019-04-07T07:07:25.061Z,10.68
2019-04-07T07:08:24.818Z,10.73
2019-04-07T07:09:26.452Z,10.74
2019-04-07T07:10:28.883Z,10.68
2019-04-07T07:11:29.234Z,10.79
2019-04-07T07:12:32.852Z,10.74
2019-04-07T07:13:30.661Z,10.79
2019-04-07T07:14:34.779Z,10.78
2019-04-07T07:15:25.608Z,10.85
2019-04-07T07:16:25.086Z,10.88
2019-04-07T07:17:25.700Z,10.82
2019-04-07T07:18:25.116Z,10.92
2019-04-07T07:19:27.450Z,10.88
2019-04-07T07:20:28.587Z,10.91
2019-04-07T07:21:25.207Z,10.91
2019-04-07T07:22:25.748Z,10.89
2019-04-07T07:23:25.333Z,10.94
2019-04-07T07:24:26.489Z,10.97
2019-04-07T07:25:26.598Z,10.96
2019-04-07T07:26:25.390Z,10.99
2019-04-07T07:27:25.887Z,11.02
2019-04-07T07:29:08.348Z,11.06
2019-04-07T07:30:07.997Z,11.07
2019-04-07T07:31:08.025Z,11.07
2019-04-07T07:32:08.220Z,10.99
2019-04-07T07:33:10.839Z,10.99
2019-04-07T07:34:10.662Z,11.04
2019-04-07T07:35:12.363Z,11.00
2019-04-07T07:36:08.182Z,11.09
2019-04-07T07:37:08.385Z,11.10
2019-04-07T07:38:08.230Z,11.21
2019-04-07T07:39:11.400Z,11.10
2019-04-07T07:40:09.841Z,11.27
2019-04-07T07:41:08.926Z,11.27
2019-04-07T07:42:08.350Z,11.36
2019-04-07T07:43:08.659Z,11.40
2019-04-07T07:44:09.617Z,11.40
2019-04-07T07:45:12.659Z,11.51
2019-04-07T07:46:08.725Z,11.54
2019-04-07T07:47:09.095Z,11.61
2019-04-07T07:48:08.530Z,11.65
2019-04-07T07:49:08.586Z,11.73
2019-04-07T07:50:08.961Z,11.73
2019-04-07T07:51:12.911Z,11.80
2019-04-07T07:52:08.650Z,11.86
2019-04-07T07:53:08.681Z,11.91
2019-04-07T07:54:08.836Z,11.96
2019-04-07T07:56:12.111Z,11.99
2019-04-07T07:57:08.801Z,12.05
2019-04-07T07:58:09.325Z,12.17
2019-04-07T07:59:08.864Z,12.23
2019-04-07T08:00:08.894Z,12.28
2019-04-07T08:01:11.293Z,12.27
2019-04-07T08:02:09.790Z,12.42
2019-04-07T08:03:08.985Z,12.47
2019-04-07T08:04:09.752Z,12.52
2019-04-07T08:05:09.330Z,12.52
2019-04-07T08:06:09.664Z,12.59
2019-04-07T08:07:13.473Z,12.62
2019-04-07T08:08:09.298Z,12.64
2019-04-07T08:09:13.709Z,12.82
2019-04-07T08:10:09.592Z,12.82
2019-04-07T08:11:09.996Z,12.96
2019-04-07T08:12:09.603Z,12.86
2019-04-07T08:13:09.294Z,13.00
2019-04-07T08:14:09.987Z,13.03
2019-04-07T08:15:09.358Z,13.23
2019-04-07T08:16:09.772Z,13.46
2019-04-07T08:17:09.473Z,13.55
2019-04-07T08:18:09.729Z,13.63
2019-04-07T08:19:10.290Z,13.71
2019-04-07T08:20:11.398Z,13.73
2019-04-07T08:21:11.729Z,13.82
2019-04-07T08:22:10.378Z,13.91
2019-04-07T08:23:11.769Z,14.00
2019-04-07T08:24:10.169Z,14.02
2019-04-07T08:25:09.781Z,14.09
2019-04-07T08:26:10.436Z,14.12
2019-04-07T08:27:10.508Z,14.22
2019-04-07T08:28:09.766Z,14.25
2019-04-07T08:29:11.967Z,14.21
2019-04-07T08:30:11.768Z,14.20
2019-04-07T08:31:09.898Z,14.33
2019-04-07T08:32:09.894Z,14.32
2019-04-07T08:33:09.930Z,14.36
2019-04-07T08:34:09.961Z,14.36
2019-04-07T08:35:09.998Z,14.33
2019-04-07T08:36:12.612Z,14.37
2019-04-07T08:37:13.904Z,14.35
2019-04-07T08:39:38.771Z,14.73
2019-04-07T08:40:39.256Z,14.77
2019-04-07T08:41:41.136Z,14.72
2019-04-07T08:42:39.190Z,14.86
2019-04-07T08:43:38.707Z,14.94
2019-04-07T08:44:38.738Z,14.91
2019-04-07T08:45:39.747Z,14.92
2019-04-07T08:46:41.688Z,14.91
2019-04-07T08:47:39.171Z,14.91
2019-04-07T08:48:38.962Z,14.89
2019-04-07T08:49:38.901Z,14.91
2019-04-07T08:50:38.933Z,14.89
2019-04-07T08:51:39.433Z,14.69
2019-04-07T08:52:42.439Z,14.60
2019-04-07T08:53:42.573Z,14.57
2019-04-07T08:54:39.065Z,14.65
2019-04-07T08:55:39.200Z,14.57
2019-04-07T08:56:39.159Z,14.46
2019-04-07T08:57:39.163Z,14.51
2019-04-07T08:58:40.107Z,14.62
2019-04-07T08:59:42.478Z,14.58
2019-04-07T09:00:39.261Z,14.72
2019-04-07T09:01:39.294Z,14.75
2019-04-07T09:02:39.325Z,14.86
2019-04-07T09:03:40.006Z,14.72
2019-04-07T09:04:39.912Z,14.80
2019-04-07T09:05:39.907Z,14.91
2019-04-07T09:06:39.630Z,14.75
2019-04-07T09:07:40.051Z,14.81
2019-04-07T09:08:39.861Z,14.72
2019-04-07T09:09:44.807Z,14.72
2019-04-07T09:10:39.588Z,14.68
2019-04-07T09:11:41.260Z,14.65
2019-04-07T09:12:39.653Z,14.62
2019-04-07T09:13:39.689Z,14.62
2019-04-07T09:14:40.835Z,14.62
2019-04-07T09:15:43.615Z,14.70
2019-04-07T09:16:40.434Z,14.94
2019-04-07T09:17:44.505Z,15.03
2019-04-07T09:18:51.021Z,15.10
2019-04-07T09:19:39.882Z,15.34
2019-04-07T09:20:42.629Z,15.50
2019-04-07T09:21:42.430Z,15.60
2019-04-07T09:22:40.665Z,15.64
2019-04-07T09:23:40.454Z,15.69
2019-04-07T09:24:40.049Z,15.72
2019-04-07T09:25:41.126Z,15.86
2019-04-07T09:26:42.107Z,15.90
2019-04-07T09:27:41.027Z,15.84
2019-04-07T09:28:40.179Z,15.94
2019-04-07T09:29:40.968Z,15.90
2019-04-07T09:30:40.837Z,15.83
2019-04-07T09:31:40.986Z,15.82
2019-04-07T09:32:40.583Z,15.87
2019-04-07T09:33:40.346Z,16.01
2019-04-07T09:34:40.388Z,16.20
2019-04-07T09:35:41.262Z,16.24
2019-04-07T09:36:40.746Z,16.24
2019-04-07T09:37:41.550Z,16.27
2019-04-07T09:38:40.809Z,16.38
2019-04-07T09:39:54.685Z,16.43
2019-04-07T09:40:40.581Z,16.35
2019-04-07T09:41:41.932Z,16.56
2019-04-07T09:42:41.187Z,16.61
2019-04-07T09:43:40.680Z,16.85
2019-04-07T09:44:40.724Z,16.91
2019-04-07T09:45:41.215Z,16.94
2019-04-07T09:46:44.593Z,17.15
2019-04-07T09:47:41.394Z,17.36
2019-04-07T09:48:41.403Z,17.64
2019-04-07T09:49:41.617Z,17.87
2019-04-07T09:50:40.919Z,18.15
2019-04-07T09:51:41.513Z,18.41
2019-04-07T09:52:43.598Z,18.54
2019-04-07T09:53:41.476Z,18.99
2019-04-07T09:54:41.055Z,19.21
2019-04-07T09:55:41.202Z,19.29
2019-04-07T09:56:41.793Z,19.16
2019-04-07T09:57:41.855Z,19.28
2019-04-07T09:58:42.608Z,19.31
2019-04-07T09:59:41.231Z,19.18
2019-04-07T10:00:41.407Z,19.04
2019-04-07T10:01:41.470Z,19.00
2019-04-07T10:02:41.336Z,18.65
2019-04-07T10:03:41.372Z,18.51
2019-04-07T10:04:42.548Z,18.51
2019-04-07T10:07:42.792Z,17.59
2019-04-07T10:08:41.872Z,17.66
2019-04-07T10:09:41.588Z,18.11
2019-04-07T10:10:41.638Z,18.54
2019-04-07T10:11:41.803Z,19.14
2019-04-07T10:12:42.516Z,19.41
2019-04-07T10:13:41.741Z,19.59
2019-04-07T10:14:42.097Z,19.36
2019-04-07T10:15:42.155Z,18.90
2019-04-07T10:16:41.953Z,18.58
2019-04-07T10:17:41.878Z,18.21
2019-04-07T10:18:42.803Z,17.71
2019-04-07T10:19:42.630Z,17.36
2019-04-07T10:20:42.793Z,17.21
2019-04-07T10:21:42.859Z,17.21
2019-04-07T10:22:42.885Z,17.14
2019-04-07T10:23:42.098Z,17.15
2019-04-07T10:24:42.135Z,17.15
2019-04-07T10:25:42.333Z,17.04
2019-04-07T10:26:42.958Z,16.83
2019-04-07T10:27:42.979Z,16.86
2019-04-07T10:28:43.066Z,16.45
2019-04-07T10:29:42.803Z,16.30
2019-04-07T10:30:42.349Z,16.08
2019-04-07T10:31:42.385Z,16.04
2019-04-07T10:32:42.852Z,16.09
2019-04-07T10:33:42.747Z,16.05
2019-04-07T10:34:42.865Z,16.20
2019-04-07T10:35:42.532Z,16.21
2019-04-07T10:36:42.582Z,16.33
2019-04-07T10:37:42.879Z,16.28
2019-04-07T10:38:42.649Z,16.08
2019-04-07T10:39:43.300Z,16.02
2019-04-07T10:40:43.735Z,16.08
2019-04-07T10:41:42.803Z,16.12
2019-04-07T10:42:43.678Z,16.08
2019-04-07T10:43:43.429Z,16.12
2019-04-07T10:44:43.557Z,16.14
2019-04-07T10:45:43.787Z,16.35
2019-04-07T10:46:42.918Z,16.17
2019-04-07T10:47:43.662Z,16.20
2019-04-07T10:48:43.469Z,16.20
2019-04-07T10:49:43.203Z,15.96
2019-04-07T10:50:43.703Z,16.12
2019-04-07T10:51:43.085Z,16.33
2019-04-07T10:52:43.770Z,16.27
2019-04-07T10:53:43.154Z,16.31
2019-04-07T10:54:43.778Z,16.38
2019-04-07T10:55:44.103Z,16.28
2019-04-07T10:56:43.865Z,16.27
2019-04-07T10:57:43.638Z,16.42
2019-04-07T10:58:43.629Z,16.38
2019-04-07T10:59:43.371Z,16.75
2019-04-07T11:00:46.504Z,16.93
2019-04-07T11:01:43.437Z,17.23
2019-04-07T11:02:44.185Z,17.52
2019-04-07T11:03:44.375Z,17.63
2019-04-07T11:04:44.015Z,17.86
2019-04-07T11:05:43.569Z,17.62
2019-04-07T11:06:43.957Z,17.46
2019-04-07T11:07:43.867Z,17.23
2019-04-07T11:08:43.673Z,17.14
2019-04-07T11:09:43.933Z,17.00
2019-04-07T11:10:44.193Z,16.97
2019-04-07T11:11:43.885Z,16.76
2019-04-07T11:12:43.813Z,16.48
2019-04-07T11:13:43.951Z,16.31
2019-04-07T11:14:44.485Z,16.33
2019-04-07T11:15:44.419Z,16.24
2019-04-07T11:16:44.205Z,16.17
2019-04-07T11:17:43.987Z,16.24
2019-04-07T11:18:44.057Z,16.35
2019-04-07T11:19:44.530Z,16.30
2019-04-07T11:20:44.484Z,16.38
2019-04-07T11:21:44.125Z,16.43
2019-04-07T11:22:44.231Z,16.45
2019-04-07T11:23:45.160Z,16.21
2019-04-07T11:24:44.231Z,16.28
2019-04-07T11:25:45.018Z,16.42
2019-04-07T11:26:44.297Z,16.28
2019-04-07T11:27:45.076Z,16.34
2019-04-07T11:28:44.655Z,16.50
2019-04-07T11:29:44.405Z,16.48
2019-04-07T11:30:45.326Z,16.66
2019-04-07T11:31:45.008Z,16.60
2019-04-07T11:32:44.505Z,16.70
2019-04-07T11:33:44.992Z,16.71
2019-04-07T11:34:45.418Z,16.73
2019-04-07T11:35:45.509Z,16.66
2019-04-07T11:36:45.337Z,16.63
2019-04-07T11:37:45.112Z,16.68
2019-04-07T11:38:45.240Z,16.94
2019-04-07T11:39:44.764Z,17.08
2019-04-07T11:40:50.165Z,16.94
2019-04-07T11:41:44.816Z,16.66
2019-04-07T11:42:44.916Z,16.53
2019-04-07T11:43:44.885Z,16.58
2019-04-07T11:44:45.580Z,16.68
2019-04-07T11:45:56.139Z,16.82
2019-04-07T11:46:45.019Z,16.93
2019-04-07T11:47:45.023Z,17.11
2019-04-07T11:48:45.059Z,17.25
2019-04-07T11:49:46.096Z,17.15
2019-04-07T11:50:45.128Z,16.94
2019-04-07T11:51:45.163Z,16.86
2019-04-07T11:52:45.203Z,16.79
2019-04-07T11:53:45.951Z,16.79
2019-04-07T11:54:45.267Z,16.97
2019-04-07T11:55:45.468Z,17.08
2019-04-07T11:56:46.039Z,17.19
2019-04-07T11:57:45.603Z,17.38
2019-04-07T11:58:45.411Z,17.62
2019-04-07T11:59:45.910Z,17.58
2019-04-07T12:00:46.223Z,17.31
2019-04-07T12:01:47.962Z,17.44
2019-04-07T12:02:45.599Z,17.55
2019-04-07T12:03:46.232Z,17.66
2019-04-07T12:04:45.619Z,17.56
2019-04-07T12:05:46.079Z,17.59
2019-04-07T12:06:48.091Z,17.55
2019-04-07T12:07:45.887Z,17.70
2019-04-07T12:08:45.763Z,17.81
2019-04-07T12:09:46.698Z,17.93
2019-04-07T12:10:56.392Z,17.68
2019-04-07T12:11:46.422Z,17.64
2019-04-07T12:12:45.901Z,17.19
2019-04-07T12:13:46.674Z,17.07
2019-04-07T12:14:50.035Z,16.88
2019-04-07T12:15:46.293Z,16.96
2019-04-07T12:16:46.049Z,16.94
2019-04-07T12:17:46.252Z,16.75
2019-04-07T12:18:50.100Z,16.79
2019-04-07T12:19:46.328Z,16.71
2019-04-07T12:20:46.250Z,16.79
2019-04-07T12:21:46.991Z,16.85
2019-04-07T12:22:48.016Z,16.93
2019-04-07T12:23:46.514Z,17.08
2019-04-07T12:24:46.331Z,17.25
2019-04-07T12:25:47.135Z,17.40
2019-04-07T12:26:46.398Z,17.37
2019-04-07T12:27:47.140Z,17.52
2019-04-07T12:28:49.110Z,17.64
2019-04-07T12:29:47.179Z,17.87
2019-04-07T12:30:46.983Z,17.79
2019-04-07T12:31:46.708Z,17.79
2019-04-07T12:32:46.687Z,18.02
2019-04-07T12:33:47.382Z,17.87
2019-04-07T12:34:48.594Z,17.84
2019-04-07T12:35:50.961Z,17.90
2019-04-07T12:36:47.508Z,18.14
2019-04-07T12:37:47.664Z,18.37
2019-04-07T12:38:46.823Z,18.50
2019-04-07T12:39:49.681Z,18.27
2019-04-07T12:40:47.043Z,17.99
2019-04-07T12:41:46.936Z,18.29
2019-04-07T12:42:47.123Z,18.11
2019-04-07T12:43:49.559Z,18.21
2019-04-07T12:44:47.039Z,18.07
2019-04-07T12:45:47.075Z,18.15
2019-04-07T12:46:47.110Z,18.11
2019-04-07T12:47:47.453Z,17.93
2019-04-07T12:48:47.962Z,17.74
2019-04-07T12:49:47.221Z,17.87
2019-04-07T12:50:49.928Z,17.72
2019-04-07T12:51:47.293Z,17.84
2019-04-07T12:52:47.353Z,17.90
2019-04-07T12:53:47.912Z,17.74
2019-04-07T12:54:47.423Z,17.58
2019-04-07T12:55:55.022Z,17.70
2019-04-07T12:56:47.808Z,17.62
2019-04-07T12:57:47.724Z,17.54
2019-04-07T12:58:48.514Z,17.49
2019-04-07T12:59:50.133Z,17.44
2019-04-07T13:00:57.807Z,17.11
2019-04-07T13:01:49.612Z,17.23
2019-04-07T13:02:47.684Z,17.23
2019-04-07T13:03:47.719Z,17.26
2019-04-07T13:04:48.172Z,17.21
2019-04-07T13:05:48.686Z,17.16
2019-04-07T13:06:48.009Z,16.76
2019-04-07T13:07:49.535Z,16.58
2019-04-07T13:08:47.926Z,16.58
2019-04-07T13:09:48.114Z,16.67